Time;durP1;ratioP1;P1;durP2;ratioP2;P2;SDS_P1;SDS_P2;PMS_P1;PMS_P2;Temp;Humidity;BMP_temperature;BMP_pressure;BME280_temperature;BME280_humidity;BME280_pressure;Samples;Min_cycle;Max_cycle;Signal;HPM_P1;HPM_P2
2022/03/20 00:00:35;;;;;;;;;;;;;;;;;;5032299;28;19920;-49
2022/03/20 00:03:01;;;;;;;;;;;;;;;;;;5035978;28;19917;-49
2022/03/20 00:05:27;;;;;;;;;;;;;;;;;;5036201;28;19905;-49
2022/03/20 00:07:53;;;;;;;;;;;;;;;;;;5036176;28;19911;-50
2022/03/20 00:10:18;;;;;;;;;;;;;;;;;;5036428;28;20380;-53
2022/03/20 00:12:44;;;;;;;;;;;;;;;;;;5036357;28;19909;-50
2022/03/20 00:15:10;;;;;;;;;;;;;;;;;;5036376;28;19905;-52
2022/03/20 00:17:36;;;;;;;;;;;;;;;;;;5036024;28;19909;-53
2022/03/20 00:20:02;;;;;;;;;;;;;;;;;;5035895;28;19968;-51
2022/03/20 00:22:29;;;;;;;;;;;;;;;;;;5035935;28;19951;-52
2022/03/20 00:24:55;;;;;;;;;;;;;;;;;;5035910;28;19911;-50
2022/03/20 00:27:21;;;;;;;;;;;;;;;;;;5036146;28;20003;-51
2022/03/20 00:29:47;;;;;;;;;;;;;;;;;;5035777;28;19905;-48
2022/03/20 00:32:13;;;;;;;;;;;;;;;;;;5035711;28;19962;-51
2022/03/20 00:34:38;;;;;;;;;;;;;;;;;;5035737;28;19905;-49
2022/03/20 00:37:05;;;;;;;;;;;;;;;;;;5035743;28;19909;-50
2022/03/20 00:39:31;;;;;;;;;;;;;;;;;;5035674;28;20295;-49
2022/03/20 00:41:57;;;;;;;;;;;;;;;;;;5035620;28;19912;-50
2022/03/20 00:44:23;;;;;;;;;;;;;;;;;;5035527;28;19986;-49
2022/03/20 00:46:49;;;;;;;;;;;;;;;;;;5035490;28;19912;-49
2022/03/20 00:49:15;;;;;;;;;;;;;;;;;;5035412;28;20391;-50
2022/03/20 00:51:40;;;;;;;;;;;;;;;;;;5035343;28;19959;-49
2022/03/20 00:54:06;;;;;;;;;;;;;;;;;;5035362;28;20389;-50
2022/03/20 00:56:32;;;;;;;;;;;;;;;;;;5035596;28;19905;-49
2022/03/20 00:58:58;;;;;;;;;;;;;;;;;;5035254;28;19912;-50
2022/03/20 01:01:26;;;;;;;;;;;;;;;;;;5035043;28;19913;-50
2022/03/20 01:03:52;;;;;;;;;;;;;;;;;;5034935;28;20008;-49
2022/03/20 01:06:18;;;;;;;;;;;;;;;;;;5035298;28;19948;-49
2022/03/20 01:08:44;;;;;;;;;;;;;;;;;;5035318;28;20330;-49
2022/03/20 01:11:10;;;;;;;;;;;;;;;;;;5034994;28;19944;-49
2022/03/20 01:13:36;;;;;;;;;;;;;;;;;;5034385;28;19905;-49
2022/03/20 01:16:02;;;;;;;;;;;;;;;;;;5034930;28;20449;-49
2022/03/20 01:18:28;;;;;;;;;;;;;;;;;;5034918;28;19958;-48
2022/03/20 01:20:54;;;;;;;;;;;;;;;;;;5034667;28;20011;-48
2022/03/20 01:23:23;;;;;;;;;;;;;;;;;;5034753;28;19909;-48
2022/03/20 01:25:49;;;;;;;;;;;;;;;;;;5034953;28;20267;-48
2022/03/20 01:28:14;;;;;;;;;;;;;;;;;;5034638;28;20359;-49
2022/03/20 01:30:40;;;;;;;;;;;;;;;;;;5034568;28;20001;-49
2022/03/20 01:33:06;;;;;;;;;;;;;;;;;;5034900;28;19905;-48
2022/03/20 01:35:34;;;;;;;;;;;;;;;;;;5034268;28;19959;-49
2022/03/20 01:38:00;;;;;;;;;;;;;;;;;;5034550;28;19944;-49
2022/03/20 01:40:26;;;;;;;;;;;;;;;;;;5034180;28;19948;-50
2022/03/20 01:42:52;;;;;;;;;;;;;;;;;;5034182;28;19905;-49
2022/03/20 01:45:18;;;;;;;;;;;;;;;;;;5034138;28;19975;-48
2022/03/20 01:47:47;;;;;;;;;;;;;;;;;;5034050;28;19995;-50
2022/03/20 01:50:12;;;;;;;;;;;;;;;;;;5034206;28;19952;-49
2022/03/20 01:52:38;;;;;;;;;;;;;;;;;;5034031;28;19905;-57
2022/03/20 01:55:04;;;;;;;;;;;;;;;;;;5034236;28;19913;-57
2022/03/20 01:57:36;;;;;;;;;;;;;;;;;;5033963;28;19905;-58
2022/03/20 02:00:01;;;;;;;;;;;;;;;;;;5034144;28;19979;-58
2022/03/20 02:02:27;;;;;;;;;;;;;;;;;;5033561;28;20400;-56
2022/03/20 02:04:53;;;;;;;;;;;;;;;;;;5033800;28;20160;-57
2022/03/20 02:07:20;;;;;;;;;;;;;;;;;;5033777;28;19905;-58
2022/03/20 02:09:46;;;;;;;;;;;;;;;;;;5034011;28;19916;-57
2022/03/20 02:12:12;;;;;;;;;;;;;;;;;;5033584;28;20265;-58
2022/03/20 02:14:38;;;;;;;;;;;;;;;;;;5033843;28;20035;-57
2022/03/20 02:17:04;;;;;;;;;;;;;;;;;;5033476;28;19909;-57
2022/03/20 02:19:30;;;;;;;;;;;;;;;;;;5033311;28;19919;-57
2022/03/20 02:21:56;;;;;;;;;;;;;;;;;;5033383;28;19955;-57
2022/03/20 02:24:22;;;;;;;;;;;;;;;;;;5032518;28;20287;-57
2022/03/20 02:26:48;;;;;;;;;;;;;;;;;;5033331;28;19951;-57
2022/03/20 02:29:14;;;;;;;;;;;;;;;;;;5033615;28;20339;-57
2022/03/20 02:31:40;;;;;;;;;;;;;;;;;;5033228;28;19905;-57
2022/03/20 02:34:07;;;;;;;;;;;;;;;;;;5033174;28;20280;-58
2022/03/20 02:36:35;;;;;;;;;;;;;;;;;;5033171;28;20332;-58
2022/03/20 02:39:01;;;;;;;;;;;;;;;;;;5033130;28;20390;-56
2022/03/20 02:41:27;;;;;;;;;;;;;;;;;;5033006;28;19913;-58
2022/03/20 02:43:53;;;;;;;;;;;;;;;;;;5032973;28;19908;-58
2022/03/20 02:46:19;;;;;;;;;;;;;;;;;;5033157;28;20347;-58
2022/03/20 02:48:45;;;;;;;;;;;;;;;;;;5032951;28;19905;-58
2022/03/20 02:51:11;;;;;;;;;;;;;;;;;;5033149;28;20385;-57
2022/03/20 02:53:37;;;;;;;;;;;;;;;;;;5032879;28;19905;-58
2022/03/20 02:56:03;;;;;;;;;;;;;;;;;;5032821;28;19984;-58
2022/03/20 02:58:29;;;;;;;;;;;;;;;;;;5032811;28;19905;-57
2022/03/20 03:00:55;;;;;;;;;;;;;;;;;;5032592;28;19920;-57
2022/03/20 03:03:21;;;;;;;;;;;;;;;;;;5032584;28;19924;-58
2022/03/20 03:05:47;;;;;;;;;;;;;;;;;;5032694;28;19905;-56
2022/03/20 03:11:01;;;;;;;;;;;;;;;;;;5032643;28;19951;-57
2022/03/20 03:13:27;;;;;;;;;;;;;;;;;;5032592;28;20359;-57
2022/03/20 03:15:52;;;;;;;;;;;;;;;;;;5032804;28;19959;-58
2022/03/20 03:18:19;;;;;;;;;;;;;;;;;;5032490;28;19905;-57
2022/03/20 03:20:47;;;;;;;;;;;;;;;;;;5032413;28;19913;-58
2022/03/20 03:23:13;;;;;;;;;;;;;;;;;;5032565;28;19948;-49
2022/03/20 03:25:40;;;;;;;;;;;;;;;;;;5032385;28;19912;-48
2022/03/20 03:28:06;;;;;;;;;;;;;;;;;;5032316;28;19905;-50
2022/03/20 03:30:32;;;;;;;;;;;;;;;;;;5032334;28;19951;-51
2022/03/20 03:32:57;;;;;;;;;;;;;;;;;;5032281;28;20420;-48
2022/03/20 03:35:42;;;;;;;;;;;;;;;;;;5032050;28;19908;-49
2022/03/20 03:38:08;;;;;;;;;;;;;;;;;;5032208;28;20364;-49
2022/03/20 03:40:33;;;;;;;;;;;;;;;;;;5032195;28;19923;-50
2022/03/20 03:43:00;;;;;;;;;;;;;;;;;;5030960;28;19933;-48
2022/03/20 03:45:25;;;;;;;;;;;;;;;;;;5032248;28;19905;-48
2022/03/20 03:47:51;;;;;;;;;;;;;;;;;;5032443;28;19905;-49
2022/03/20 03:50:17;;;;;;;;;;;;;;;;;;5032108;28;19905;-48
2022/03/20 03:52:43;;;;;;;;;;;;;;;;;;5032080;28;19971;-49
2022/03/20 03:55:09;;;;;;;;;;;;;;;;;;5032284;28;19924;-48
2022/03/20 03:57:35;;;;;;;;;;;;;;;;;;5032069;28;19927;-49
2022/03/20 04:00:01;;;;;;;;;;;;;;;;;;5032081;28;19913;-49
2022/03/20 04:02:27;;;;;;;;;;;;;;;;;;5031757;28;19956;-49
2022/03/20 04:04:54;;;;;;;;;;;;;;;;;;5032249;28;20043;-49
2022/03/20 04:07:21;;;;;;;;;;;;;;;;;;5031989;28;19948;-48
2022/03/20 04:09:47;;;;;;;;;;;;;;;;;;5032008;28;20279;-47
2022/03/20 04:12:15;;;;;;;;;;;;;;;;;;5032156;28;19909;-49
2022/03/20 04:14:41;;;;;;;;;;;;;;;;;;5031980;28;20267;-49
2022/03/20 04:17:07;;;;;;;;;;;;;;;;;;5031860;28;19905;-48
2022/03/20 04:19:33;;;;;;;;;;;;;;;;;;5031811;28;19913;-48
2022/03/20 04:21:59;;;;;;;;;;;;;;;;;;5031820;28;19905;-49
2022/03/20 04:24:25;;;;;;;;;;;;;;;;;;5031804;28;20448;-49
2022/03/20 04:26:51;;;;;;;;;;;;;;;;;;5031807;28;19905;-48
2022/03/20 04:29:20;;;;;;;;;;;;;;;;;;5032048;28;19995;-49
2022/03/20 04:31:46;;;;;;;;;;;;;;;;;;5032141;28;20272;-47
2022/03/20 04:34:12;;;;;;;;;;;;;;;;;;5031747;28;19911;-48
2022/03/20 04:36:38;;;;;;;;;;;;;;;;;;5031711;28;19968;-49
2022/03/20 04:39:04;;;;;;;;;;;;;;;;;;5031731;28;19944;-49
2022/03/20 04:41:30;;;;;;;;;;;;;;;;;;5031606;28;20280;-49
2022/03/20 04:43:56;;;;;;;;;;;;;;;;;;5031649;28;19909;-48
2022/03/20 04:46:22;;;;;;;;;;;;;;;;;;5031906;28;19905;-49
2022/03/20 04:59:46;;;;;;;;;;;;;;;;;;5035021;28;19920;-48
2022/03/20 05:02:12;;;;;;;;;;;;;;;;;;5034727;28;19905;-49
2022/03/20 05:04:38;;;;;;;;;;;;;;;;;;5034930;28;20383;-49
2022/03/20 05:07:04;;;;;;;;;;;;;;;;;;5034808;28;19905;-48
2022/03/20 05:14:59;;;;;;;;;;;;;;;;;;5034808;28;19959;-49
2022/03/20 05:17:25;;;;;;;;;;;;;;;;;;5034664;28;20326;-48
2022/03/20 05:19:51;;;;;;;;;;;;;;;;;;5034521;28;19920;-49
2022/03/20 05:22:17;;;;;;;;;;;;;;;;;;5034589;28;20371;-49
2022/03/20 05:24:43;;;;;;;;;;;;;;;;;;5034843;28;19940;-48
2022/03/20 05:27:09;;;;;;;;;;;;;;;;;;5034520;28;19905;-48
2022/03/20 05:29:35;;;;;;;;;;;;;;;;;;5034459;28;19905;-49
2022/03/20 05:32:01;;;;;;;;;;;;;;;;;;5034558;28;20291;-48
2022/03/20 05:34:27;;;;;;;;;;;;;;;;;;5034357;28;19905;-48
2022/03/20 05:36:53;;;;;;;;;;;;;;;;;;5034347;28;19909;-48
2022/03/20 05:39:19;;;;;;;;;;;;;;;;;;5034281;28;20429;-49
2022/03/20 05:41:48;;;;;;;;;;;;;;;;;;5034213;28;19909;-48
2022/03/20 05:44:16;;;;;;;;;;;;;;;;;;5034472;28;19971;-50
2022/03/20 05:46:42;;;;;;;;;;;;;;;;;;5034430;28;19911;-48
2022/03/20 05:49:07;;;;;;;;;;;;;;;;;;5034111;28;19905;-47
2022/03/20 05:51:34;;;;;;;;;;;;;;;;;;5034131;28;19909;-48
2022/03/20 05:54:00;;;;;;;;;;;;;;;;;;5034064;28;19966;-49
2022/03/20 05:59:10;;;;;;;;;;;;;;;;;;5033929;28;20315;-48
2022/03/20 06:01:36;;;;;;;;;;;;;;;;;;5033731;28;19913;-48
2022/03/20 06:04:03;;;;;;;;;;;;;;;;;;5033622;28;19932;-48
2022/03/20 06:06:29;;;;;;;;;;;;;;;;;;5034051;28;19905;-48
2022/03/20 06:08:55;;;;;;;;;;;;;;;;;;5033849;28;19990;-48
2022/03/20 06:11:21;;;;;;;;;;;;;;;;;;5033662;28;20303;-49
2022/03/20 06:13:48;;;;;;;;;;;;;;;;;;5033598;28;19945;-47
2022/03/20 06:16:13;;;;;;;;;;;;;;;;;;5033655;28;20302;-47
2022/03/20 06:18:42;;;;;;;;;;;;;;;;;;5033488;28;19987;-48
2022/03/20 06:21:08;;;;;;;;;;;;;;;;;;5033669;28;19967;-48
2022/03/20 06:23:34;;;;;;;;;;;;;;;;;;5033395;28;19905;-48
2022/03/20 06:26:00;;;;;;;;;;;;;;;;;;5033369;28;19999;-48
2022/03/20 06:28:26;;;;;;;;;;;;;;;;;;5033376;28;19940;-46
2022/03/20 06:30:52;;;;;;;;;;;;;;;;;;5033565;28;19905;-48
2022/03/20 06:33:18;;;;;;;;;;;;;;;;;;5033213;28;20292;-49
2022/03/20 06:35:44;;;;;;;;;;;;;;;;;;5033170;28;20058;-49
2022/03/20 06:38:10;;;;;;;;;;;;;;;;;;5033171;28;20359;-48
2022/03/20 06:40:35;;;;;;;;;;;;;;;;;;5033110;28;20020;-48
2022/03/20 06:43:01;;;;;;;;;;;;;;;;;;5033074;28;20082;-47
2022/03/20 06:45:27;;;;;;;;;;;;;;;;;;5033082;28;19905;-47
2022/03/20 06:47:53;;;;;;;;;;;;;;;;;;5032950;28;19909;-48
2022/03/20 06:50:19;;;;;;;;;;;;;;;;;;5033005;28;20004;-48
2022/03/20 06:52:45;;;;;;;;;;;;;;;;;;5032903;28;20382;-48
2022/03/20 06:55:12;;;;;;;;;;;;;;;;;;5032942;28;19905;-49
2022/03/20 06:57:38;;;;;;;;;;;;;;;;;;5033094;28;19912;-49
2022/03/20 07:00:04;;;;;;;;;;;;;;;;;;5032739;28;19916;-48
2022/03/20 07:02:30;;;;;;;;;;;;;;;;;;5032567;28;19963;-48
2022/03/20 07:04:56;;;;;;;;;;;;;;;;;;5032710;28;19909;-48
2022/03/20 07:07:23;;;;;;;;;;;;;;;;;;5032607;28;19927;-48
2022/03/20 07:09:48;;;;;;;;;;;;;;;;;;5032479;28;19912;-48
2022/03/20 07:12:14;;;;;;;;;;;;;;;;;;5032595;28;19904;-48
2022/03/20 07:14:41;;;;;;;;;;;;;;;;;;5032758;28;19905;-50
2022/03/20 07:17:09;;;;;;;;;;;;;;;;;;5032396;28;19909;-50
2022/03/20 07:19:35;;;;;;;;;;;;;;;;;;5032413;28;19905;-50
2022/03/20 07:22:01;;;;;;;;;;;;;;;;;;5032461;28;19923;-50
2022/03/20 07:24:27;;;;;;;;;;;;;;;;;;5032425;28;19917;-49
2022/03/20 07:29:37;;;;;;;;;;;;;;;;;;5032373;28;19925;-51
2022/03/20 07:32:04;;;;;;;;;;;;;;;;;;5032347;28;19908;-50
2022/03/20 07:34:30;;;;;;;;;;;;;;;;;;5032273;28;20450;-49
2022/03/20 07:36:56;;;;;;;;;;;;;;;;;;5032151;28;19948;-49
2022/03/20 07:39:22;;;;;;;;;;;;;;;;;;5032480;28;19952;-49
2022/03/20 07:41:47;;;;;;;;;;;;;;;;;;5032181;28;19905;-48
2022/03/20 07:44:13;;;;;;;;;;;;;;;;;;5032276;28;20081;-49
2022/03/20 07:46:40;;;;;;;;;;;;;;;;;;5032107;28;19905;-50
2022/03/20 07:49:07;;;;;;;;;;;;;;;;;;5032110;28;19913;-51
2022/03/20 07:51:33;;;;;;;;;;;;;;;;;;5032090;28;19996;-50
2022/03/20 07:53:59;;;;;;;;;;;;;;;;;;5031928;28;20071;-50
2022/03/20 07:56:25;;;;;;;;;;;;;;;;;;5032066;28;19905;-51
2022/03/20 07:58:51;;;;;;;;;;;;;;;;;;5032063;28;20367;-53
2022/03/20 08:01:17;;;;;;;;;;;;;;;;;;5031982;28;20287;-52
2022/03/20 08:03:43;;;;;;;;;;;;;;;;;;5031756;28;19927;-52
2022/03/20 08:06:09;;;;;;;;;;;;;;;;;;5031999;28;19909;-50
2022/03/20 08:08:35;;;;;;;;;;;;;;;;;;5032117;28;19995;-53
2022/03/20 08:11:01;;;;;;;;;;;;;;;;;;5032185;28;20233;-50
2022/03/20 08:13:30;;;;;;;;;;;;;;;;;;5032233;28;19912;-49
2022/03/20 08:15:56;;;;;;;;;;;;;;;;;;5032405;28;19962;-49
2022/03/20 08:18:22;;;;;;;;;;;;;;;;;;5032448;28;20414;-49
2022/03/20 08:20:48;;;;;;;;;;;;;;;;;;5032252;28;19956;-49
2022/03/20 08:23:14;;;;;;;;;;;;;;;;;;5035095;28;19959;-49
2022/03/20 08:25:42;;;;;;;;;;;;;;;;;;5036046;28;19944;-49
2022/03/20 08:28:09;;;;;;;;;;;;;;;;;;5036310;28;19995;-51
2022/03/20 08:30:35;;;;;;;;;;;;;;;;;;5035988;28;19905;-49
2022/03/20 08:33:01;;;;;;;;;;;;;;;;;;5035957;28;20390;-49
2022/03/20 08:35:27;;;;;;;;;;;;;;;;;;5035911;28;19983;-50
2022/03/20 08:37:53;;;;;;;;;;;;;;;;;;5035687;28;19979;-49
2022/03/20 08:40:19;;;;;;;;;;;;;;;;;;5035794;28;20007;-48
2022/03/20 08:42:45;;;;;;;;;;;;;;;;;;5035562;28;19947;-49
2022/03/20 08:45:11;;;;;;;;;;;;;;;;;;5035671;28;19905;-48
2022/03/20 08:47:37;;;;;;;;;;;;;;;;;;5035656;28;19904;-48
2022/03/20 08:50:03;;;;;;;;;;;;;;;;;;5035600;28;19956;-48
2022/03/20 08:52:29;;;;;;;;;;;;;;;;;;5035634;28;19905;-48
2022/03/20 08:54:55;;;;;;;;;;;;;;;;;;5035601;28;19912;-48
2022/03/20 08:57:21;;;;;;;;;;;;;;;;;;5035491;28;19905;-48
2022/03/20 08:59:47;;;;;;;;;;;;;;;;;;5035357;28;19960;-48
2022/03/20 09:02:13;;;;;;;;;;;;;;;;;;5035421;28;19913;-48
2022/03/20 09:04:39;;;;;;;;;;;;;;;;;;5035339;28;19905;-49
2022/03/20 09:07:05;;;;;;;;;;;;;;;;;;5035323;28;20027;-48
2022/03/20 09:09:30;;;;;;;;;;;;;;;;;;5035199;28;19919;-48
2022/03/20 09:11:56;;;;;;;;;;;;;;;;;;5035232;28;19913;-55
2022/03/20 09:14:22;;;;;;;;;;;;;;;;;;5035212;28;19905;-56
2022/03/20 09:19:33;;;;;;;;;;;;;;;;;;5035049;28;19971;-55
2022/03/20 09:21:59;;;;;;;;;;;;;;;;;;5035001;28;20311;-55
2022/03/20 09:24:25;;;;;;;;;;;;;;;;;;5034946;28;19909;-55
2022/03/20 09:26:50;;;;;;;;;;;;;;;;;;5034858;28;19959;-55
2022/03/20 09:29:17;;;;;;;;;;;;;;;;;;5034901;28;19951;-56
2022/03/20 09:31:43;;;;;;;;;;;;;;;;;;5034992;28;19905;-55
2022/03/20 09:34:09;;;;;;;;;;;;;;;;;;5034388;28;20283;-56
2022/03/20 09:36:36;;;;;;;;;;;;;;;;;;5034666;28;19905;-56
2022/03/20 09:39:02;;;;;;;;;;;;;;;;;;5034739;28;20330;-56
2022/03/20 09:41:30;;;;;;;;;;;;;;;;;;5034656;28;19913;-55
2022/03/20 09:43:56;;;;;;;;;;;;;;;;;;5034644;28;20015;-56
2022/03/20 09:46:21;;;;;;;;;;;;;;;;;;5034590;28;19945;-56
2022/03/20 09:48:47;;;;;;;;;;;;;;;;;;5034529;28;20394;-55
2022/03/20 09:51:13;;;;;;;;;;;;;;;;;;5034532;28;19962;-54
2022/03/20 09:53:39;;;;;;;;;;;;;;;;;;5034379;28;19905;-55
2022/03/20 09:56:06;;;;;;;;;;;;;;;;;;5034347;28;19972;-55
2022/03/20 09:58:32;;;;;;;;;;;;;;;;;;5034483;28;19928;-56
2022/03/20 10:00:58;;;;;;;;;;;;;;;;;;5034007;28;20399;-55
2022/03/20 10:03:24;;;;;;;;;;;;;;;;;;5033860;28;19917;-56
2022/03/20 10:05:50;;;;;;;;;;;;;;;;;;5034154;28;19912;-56
2022/03/20 10:08:20;;;;;;;;;;;;;;;;;;5034137;28;19928;-55
2022/03/20 10:10:47;;;;;;;;;;;;;;;;;;5034011;28;19913;-55
2022/03/20 10:13:13;;;;;;;;;;;;;;;;;;5033986;28;19909;-55
2022/03/20 10:15:39;;;;;;;;;;;;;;;;;;5033917;28;20267;-55
2022/03/20 10:18:05;;;;;;;;;;;;;;;;;;5033787;28;19905;-55
2022/03/20 10:20:30;;;;;;;;;;;;;;;;;;5034033;28;19920;-55
2022/03/20 10:22:56;;;;;;;;;;;;;;;;;;5033740;28;20391;-56
2022/03/20 10:25:24;;;;;;;;;;;;;;;;;;5033800;28;19909;-56
2022/03/20 10:27:50;;;;;;;;;;;;;;;;;;5034061;28;19909;-56
2022/03/20 10:30:15;;;;;;;;;;;;;;;;;;5033651;28;19959;-55
2022/03/20 10:32:41;;;;;;;;;;;;;;;;;;5033554;28;19943;-56
2022/03/20 10:35:07;;;;;;;;;;;;;;;;;;5033530;28;19905;-56
2022/03/20 10:37:33;;;;;;;;;;;;;;;;;;5033433;28;19944;-56
2022/03/20 10:39:59;;;;;;;;;;;;;;;;;;5032053;28;19916;-55
2022/03/20 10:42:25;;;;;;;;;;;;;;;;;;5033464;28;19904;-56
2022/03/20 10:44:50;;;;;;;;;;;;;;;;;;5032656;28;20379;-56
2022/03/20 10:47:18;;;;;;;;;;;;;;;;;;5033366;28;19905;-56
2022/03/20 10:49:46;;;;;;;;;;;;;;;;;;5033482;28;19992;-55
2022/03/20 10:52:13;;;;;;;;;;;;;;;;;;5033270;28;20283;-55
2022/03/20 10:54:39;;;;;;;;;;;;;;;;;;5033441;28;20352;-55
2022/03/20 10:57:06;;;;;;;;;;;;;;;;;;5033099;28;19992;-55
2022/03/20 10:59:32;;;;;;;;;;;;;;;;;;5033073;28;20298;-55
2022/03/20 11:01:58;;;;;;;;;;;;;;;;;;5033024;28;20426;-56
2022/03/20 11:04:24;;;;;;;;;;;;;;;;;;5032762;28;19916;-55
2022/03/20 11:06:50;;;;;;;;;;;;;;;;;;5032640;28;19905;-54
2022/03/20 11:09:16;;;;;;;;;;;;;;;;;;5033130;28;19905;-56
2022/03/20 11:11:43;;;;;;;;;;;;;;;;;;5033106;28;19905;-55
2022/03/20 11:14:08;;;;;;;;;;;;;;;;;;5033141;28;19912;-55
2022/03/20 11:16:38;;;;;;;;;;;;;;;;;;5032791;28;19905;-54
2022/03/20 11:19:04;;;;;;;;;;;;;;;;;;5033060;28;19909;-57
2022/03/20 11:21:30;;;;;;;;;;;;;;;;;;5033024;28;19913;-57
2022/03/20 11:23:56;;;;;;;;;;;;;;;;;;5032621;28;20378;-57
2022/03/20 11:26:22;;;;;;;;;;;;;;;;;;5032870;28;19905;-57
2022/03/20 11:28:48;;;;;;;;;;;;;;;;;;5032767;28;19909;-56
2022/03/20 11:31:14;;;;;;;;;;;;;;;;;;5032670;28;19916;-57
2022/03/20 11:33:40;;;;;;;;;;;;;;;;;;5032728;28;19905;-55
2022/03/20 11:36:06;;;;;;;;;;;;;;;;;;5032729;28;20417;-55
2022/03/20 11:38:35;;;;;;;;;;;;;;;;;;5032723;28;20291;-57
2022/03/20 11:41:01;;;;;;;;;;;;;;;;;;5032586;28;19917;-57
2022/03/20 11:43:27;;;;;;;;;;;;;;;;;;5032915;28;19905;-56
2022/03/20 11:45:53;;;;;;;;;;;;;;;;;;5032563;28;20415;-56
2022/03/20 11:48:19;;;;;;;;;;;;;;;;;;5032571;28;19909;-58
2022/03/20 11:50:44;;;;;;;;;;;;;;;;;;5032762;28;19905;-58
2022/03/20 11:53:13;;;;;;;;;;;;;;;;;;5032445;28;19992;-57
2022/03/20 11:55:40;;;;;;;;;;;;;;;;;;5032577;28;20260;-56
2022/03/20 11:58:06;;;;;;;;;;;;;;;;;;5036520;28;20298;-58
2022/03/20 12:00:32;;;;;;;;;;;;;;;;;;5036270;28;19913;-56
2022/03/20 12:02:58;;;;;;;;;;;;;;;;;;5036062;28;20306;-58
2022/03/20 12:05:24;;;;;;;;;;;;;;;;;;5036515;28;19940;-57
2022/03/20 12:07:50;;;;;;;;;;;;;;;;;;5036166;28;19905;-57
2022/03/20 12:10:16;;;;;;;;;;;;;;;;;;5036116;28;19911;-56
2022/03/20 12:12:44;;;;;;;;;;;;;;;;;;5036078;28;20375;-57
2022/03/20 12:15:10;;;;;;;;;;;;;;;;;;5036596;28;19911;-57
2022/03/20 12:17:36;;;;;;;;;;;;;;;;;;5036489;28;20003;-57
2022/03/20 12:20:02;;;;;;;;;;;;;;;;;;5035946;28;19952;-58
2022/03/20 12:22:28;;;;;;;;;;;;;;;;;;5035674;28;20360;-57
2022/03/20 12:24:54;;;;;;;;;;;;;;;;;;5035934;28;20043;-55
2022/03/20 12:27:22;;;;;;;;;;;;;;;;;;5035885;28;19905;-58
2022/03/20 12:29:48;;;;;;;;;;;;;;;;;;5035869;28;20387;-58
2022/03/20 12:32:14;;;;;;;;;;;;;;;;;;5035956;28;19909;-58
2022/03/20 12:34:40;;;;;;;;;;;;;;;;;;5035964;28;20014;-57
2022/03/20 12:37:06;;;;;;;;;;;;;;;;;;5035864;28;19905;-57
2022/03/20 12:39:32;;;;;;;;;;;;;;;;;;5035701;28;19911;-59
2022/03/20 12:41:58;;;;;;;;;;;;;;;;;;5035705;28;19975;-58
2022/03/20 12:44:24;;;;;;;;;;;;;;;;;;5035570;28;19909;-58
2022/03/20 12:46:50;;;;;;;;;;;;;;;;;;5035661;28;19905;-57
2022/03/20 12:49:15;;;;;;;;;;;;;;;;;;5035636;28;20636;-58
2022/03/20 12:51:41;;;;;;;;;;;;;;;;;;5035665;28;19905;-58
2022/03/20 12:54:07;;;;;;;;;;;;;;;;;;5035653;28;19944;-49
2022/03/20 12:56:33;;;;;;;;;;;;;;;;;;5035505;28;20016;-50
2022/03/20 12:58:59;;;;;;;;;;;;;;;;;;5035483;28;19952;-49
2022/03/20 13:01:26;;;;;;;;;;;;;;;;;;5035574;28;20003;-49
2022/03/20 13:03:51;;;;;;;;;;;;;;;;;;5035144;28;19924;-48
2022/03/20 13:06:17;;;;;;;;;;;;;;;;;;5035327;28;20369;-48
2022/03/20 13:08:43;;;;;;;;;;;;;;;;;;5034473;28;19916;-49
2022/03/20 13:13:54;;;;;;;;;;;;;;;;;;5035311;28;19916;-49
2022/03/20 13:16:24;;;;;;;;;;;;;;;;;;5035053;28;19905;-48
2022/03/20 13:18:49;;;;;;;;;;;;;;;;;;5035112;28;20283;-49
2022/03/20 13:21:15;;;;;;;;;;;;;;;;;;5034952;28;19913;-49
2022/03/20 13:23:41;;;;;;;;;;;;;;;;;;5034957;28;20334;-49
2022/03/20 13:26:08;;;;;;;;;;;;;;;;;;5034961;28;19912;-48
2022/03/20 13:28:34;;;;;;;;;;;;;;;;;;5035266;28;19909;-48
2022/03/20 13:31:01;;;;;;;;;;;;;;;;;;5034911;28;19905;-48
2022/03/20 13:33:26;;;;;;;;;;;;;;;;;;5035163;28;19962;-47
2022/03/20 13:35:52;;;;;;;;;;;;;;;;;;5034692;28;20360;-49
2022/03/20 13:38:18;;;;;;;;;;;;;;;;;;5034683;28;19994;-50
2022/03/20 13:40:44;;;;;;;;;;;;;;;;;;5033265;28;19913;-48
2022/03/20 13:43:10;;;;;;;;;;;;;;;;;;5034919;28;19936;-48
2022/03/20 13:45:36;;;;;;;;;;;;;;;;;;5034566;28;20279;-48
2022/03/20 13:48:03;;;;;;;;;;;;;;;;;;5034386;28;19912;-50
2022/03/20 13:50:30;;;;;;;;;;;;;;;;;;5034351;28;19952;-48
2022/03/20 13:52:55;;;;;;;;;;;;;;;;;;5034344;28;19905;-49
2022/03/20 13:55:21;;;;;;;;;;;;;;;;;;5034413;28;19928;-48
2022/03/20 13:57:48;;;;;;;;;;;;;;;;;;5034623;28;19909;-48
2022/03/20 14:00:14;;;;;;;;;;;;;;;;;;5034431;28;19917;-48
2022/03/20 14:02:40;;;;;;;;;;;;;;;;;;5033889;28;19924;-49
2022/03/20 14:05:06;;;;;;;;;;;;;;;;;;5034579;28;19911;-49
2022/03/20 14:07:32;;;;;;;;;;;;;;;;;;5034570;28;19906;-47
2022/03/20 14:09:58;;;;;;;;;;;;;;;;;;5034198;28;20055;-49
2022/03/20 14:12:27;;;;;;;;;;;;;;;;;;5034412;28;19908;-48
2022/03/20 14:14:53;;;;;;;;;;;;;;;;;;5034355;28;20279;-47
2022/03/20 14:17:23;;;;;;;;;;;;;;;;;;5034291;28;20267;-47
2022/03/20 14:19:49;;;;;;;;;;;;;;;;;;5032781;28;19995;-47
2022/03/20 14:22:18;;;;;;;;;;;;;;;;;;5033695;28;20338;-48
2022/03/20 14:24:59;;;;;;;;;;;;;;;;;;5033907;28;19960;-48
2022/03/20 14:27:25;;;;;;;;;;;;;;;;;;5034026;28;19909;-47
2022/03/20 14:40:50;;;;;;;;;;;;;;;;;;5033503;28;19920;-49
2022/03/20 14:43:15;;;;;;;;;;;;;;;;;;5033621;28;19905;-48
2022/03/20 14:45:41;;;;;;;;;;;;;;;;;;5032153;28;19947;-49
2022/03/20 14:48:07;;;;;;;;;;;;;;;;;;5033345;28;19905;-49
2022/03/20 14:50:33;;;;;;;;;;;;;;;;;;5033384;28;19909;-49
2022/03/20 14:52:59;;;;;;;;;;;;;;;;;;5033276;28;19911;-49
2022/03/20 14:55:25;;;;;;;;;;;;;;;;;;5033275;28;19973;-48
2022/03/20 14:57:51;;;;;;;;;;;;;;;;;;5033229;28;19905;-50
2022/03/20 15:00:17;;;;;;;;;;;;;;;;;;5033106;28;19920;-49
2022/03/20 15:02:43;;;;;;;;;;;;;;;;;;5033207;28;19940;-48
2022/03/20 15:05:09;;;;;;;;;;;;;;;;;;5033406;28;19912;-48
2022/03/20 15:07:40;;;;;;;;;;;;;;;;;;5033139;28;20287;-49
2022/03/20 15:12:50;;;;;;;;;;;;;;;;;;5033069;28;19951;-48
2022/03/20 15:15:16;;;;;;;;;;;;;;;;;;5032932;28;20342;-48
2022/03/20 15:17:42;;;;;;;;;;;;;;;;;;5032944;28;20006;-47
2022/03/20 15:20:08;;;;;;;;;;;;;;;;;;5032819;28;19913;-55
2022/03/20 15:22:35;;;;;;;;;;;;;;;;;;5033181;28;19944;-57
2022/03/20 15:25:01;;;;;;;;;;;;;;;;;;5032813;28;19909;-55
2022/03/20 15:27:27;;;;;;;;;;;;;;;;;;5032854;28;19909;-56
2022/03/20 15:29:53;;;;;;;;;;;;;;;;;;5032781;28;20390;-56
2022/03/20 15:32:19;;;;;;;;;;;;;;;;;;5032307;28;20020;-57
2022/03/20 15:34:45;;;;;;;;;;;;;;;;;;5032728;28;19905;-56
2022/03/20 15:37:13;;;;;;;;;;;;;;;;;;5032838;28;19912;-57
2022/03/20 15:39:40;;;;;;;;;;;;;;;;;;5033284;28;19905;-57
2022/03/20 15:42:06;;;;;;;;;;;;;;;;;;5033001;28;20355;-56
2022/03/20 15:44:31;;;;;;;;;;;;;;;;;;5033224;28;19912;-58
2022/03/20 15:46:58;;;;;;;;;;;;;;;;;;5033188;28;19920;-56
2022/03/20 15:49:24;;;;;;;;;;;;;;;;;;5033128;28;19952;-58
2022/03/20 15:51:51;;;;;;;;;;;;;;;;;;5032607;28;19904;-58
2022/03/20 15:54:17;;;;;;;;;;;;;;;;;;5032828;28;19911;-57
2022/03/20 15:56:43;;;;;;;;;;;;;;;;;;5032576;28;20011;-58
2022/03/20 15:59:09;;;;;;;;;;;;;;;;;;5032377;28;19912;-51
2022/03/20 16:01:35;;;;;;;;;;;;;;;;;;5032161;28;19920;-53
2022/03/20 16:04:01;;;;;;;;;;;;;;;;;;5032089;28;20295;-51
2022/03/20 16:06:29;;;;;;;;;;;;;;;;;;5032452;28;19951;-52
2022/03/20 16:08:55;;;;;;;;;;;;;;;;;;5032219;28;19905;-49
2022/03/20 16:11:20;;;;;;;;;;;;;;;;;;5032209;28;20326;-49
2022/03/20 16:13:47;;;;;;;;;;;;;;;;;;5032238;28;19909;-48
2022/03/20 16:16:13;;;;;;;;;;;;;;;;;;5032258;28;19951;-48
2022/03/20 16:18:39;;;;;;;;;;;;;;;;;;5032519;28;19905;-48
2022/03/20 16:21:04;;;;;;;;;;;;;;;;;;5032390;28;20371;-48
2022/03/20 16:28:59;;;;;;;;;;;;;;;;;;5032232;28;19912;-48
2022/03/20 16:31:27;;;;;;;;;;;;;;;;;;5032387;28;19905;-47
2022/03/20 16:33:53;;;;;;;;;;;;;;;;;;5032136;28;20422;-48
2022/03/20 16:36:19;;;;;;;;;;;;;;;;;;5032379;28;19905;-49
2022/03/20 16:38:45;;;;;;;;;;;;;;;;;;5032089;28;20379;-52
2022/03/20 16:41:13;;;;;;;;;;;;;;;;;;5031936;28;19912;-48
2022/03/20 16:43:39;;;;;;;;;;;;;;;;;;5032186;28;20415;-50
2022/03/20 16:46:05;;;;;;;;;;;;;;;;;;5035510;28;19944;-50
2022/03/20 16:48:31;;;;;;;;;;;;;;;;;;5035464;28;19905;-49
2022/03/20 16:51:06;;;;;;;;;;;;;;;;;;5035310;28;19905;-49
2022/03/20 16:53:32;;;;;;;;;;;;;;;;;;5035474;28;19950;-49
2022/03/20 16:55:58;;;;;;;;;;;;;;;;;;5035304;28;19909;-49
2022/03/20 16:58:23;;;;;;;;;;;;;;;;;;5035232;28;20083;-50
2022/03/20 17:00:49;;;;;;;;;;;;;;;;;;5035176;28;20035;-49
2022/03/20 17:03:15;;;;;;;;;;;;;;;;;;5034881;28;19917;-50
2022/03/20 17:05:42;;;;;;;;;;;;;;;;;;5035348;28;19912;-49
2022/03/20 17:08:08;;;;;;;;;;;;;;;;;;5035100;28;20427;-49
2022/03/20 17:10:34;;;;;;;;;;;;;;;;;;5035313;28;19940;-49
2022/03/20 17:13:02;;;;;;;;;;;;;;;;;;5035045;28;20270;-49
2022/03/20 17:15:28;;;;;;;;;;;;;;;;;;5034907;28;19905;-50
2022/03/20 17:17:54;;;;;;;;;;;;;;;;;;5035231;28;19987;-59
2022/03/20 17:20:20;;;;;;;;;;;;;;;;;;5035807;28;20372;-52
2022/03/20 17:22:46;;;;;;;;;;;;;;;;;;5035590;28;19935;-53
2022/03/20 17:25:12;;;;;;;;;;;;;;;;;;5035515;28;19905;-51
2022/03/20 17:27:38;;;;;;;;;;;;;;;;;;5035196;28;20372;-53